Time;durP1;ratioP1;P1;durP2;ratioP2;P2;SDS_P1;SDS_P2;PMS_P1;PMS_P2;Temp;Humidity;BMP_temperature;BMP_pressure;BME280_temperature;BME280_humidity;BME280_pressure;Samples;Min_cycle;Max_cycle;Signal;HPM_P1;HPM_P2
2021/08/26 00:00:45;;;;;;;9.63;8.80;;;18.40;99.90;;;;;;2072531;28;20087;-69
2021/08/26 00:06:45;;;;;;;9.82;8.93;;;18.40;99.90;;;;;;2072155;28;20060;-70
2021/08/26 00:07:46;;;;;;;10.35;9.55;;;18.40;99.90;;;;;;2072103;28;20038;-70
2021/08/26 00:08:48;;;;;;;10.68;9.77;;;18.40;99.90;;;;;;2071975;28;20033;-70
2021/08/26 00:09:48;;;;;;;10.38;9.40;;;18.40;99.90;;;;;;2072287;28;20064;-69
2021/08/26 00:10:52;;;;;;;9.85;9.05;;;18.40;99.90;;;;;;2072243;28;20437;-69
2021/08/26 00:11:54;;;;;;;11.13;10.13;;;18.40;99.90;;;;;;2072021;28;20032;-70
2021/08/26 00:12:55;;;;;;;10.48;9.57;;;18.40;99.90;;;;;;2071744;28;20029;-70
2021/08/26 00:13:55;;;;;;;10.65;9.65;;;18.40;99.90;;;;;;2072416;28;20107;-70
2021/08/26 00:14:56;;;;;;;11.20;10.10;;;18.30;99.90;;;;;;2072117;28;20038;-70
2021/08/26 00:15:58;;;;;;;11.00;9.02;;;18.30;99.90;;;;;;2071805;28;20521;-69
2021/08/26 00:16:59;;;;;;;10.07;9.10;;;18.30;99.90;;;;;;2079748;28;20453;-70
2021/08/26 00:18:00;;;;;;;10.02;9.07;;;18.30;99.90;;;;;;2075564;28;20440;-69
2021/08/26 00:19:01;;;;;;;10.50;9.38;;;18.30;99.90;;;;;;2071958;28;20129;-70
2021/08/26 00:20:03;;;;;;;11.60;9.77;;;18.30;99.90;;;;;;2072191;28;20041;-70
2021/08/26 00:21:03;;;;;;;9.23;8.35;;;18.30;99.90;;;;;;2072146;28;20037;-70
2021/08/26 00:22:05;;;;;;;9.40;8.50;;;18.30;99.90;;;;;;2071421;28;20022;-70
2021/08/26 00:23:05;;;;;;;10.73;9.68;;;18.30;99.90;;;;;;2071014;28;20026;-69
2021/08/26 00:24:06;;;;;;;11.00;9.80;;;18.30;99.90;;;;;;2065725;28;20027;-69
2021/08/26 00:25:07;;;;;;;10.23;9.32;;;18.30;99.90;;;;;;2072150;28;20092;-70
2021/08/26 00:26:08;;;;;;;10.00;9.00;;;18.30;99.90;;;;;;2070916;28;20374;-70
2021/08/26 00:27:08;;;;;;;9.98;8.98;;;18.30;99.90;;;;;;2071477;28;20034;-70
2021/08/26 00:28:09;;;;;;;9.75;8.88;;;18.20;99.90;;;;;;2071436;28;20025;-70
2021/08/26 00:29:09;;;;;;;9.50;8.57;;;18.30;99.90;;;;;;2072055;28;20076;-70
2021/08/26 00:30:10;;;;;;;10.23;9.32;;;18.30;99.90;;;;;;2075190;28;20036;-70
2021/08/26 00:31:11;;;;;;;11.25;10.23;;;18.30;99.90;;;;;;2073869;28;20046;-70
2021/08/26 00:32:11;;;;;;;10.55;9.50;;;18.30;99.90;;;;;;2071723;28;20029;-70
2021/08/26 00:33:12;;;;;;;10.90;9.80;;;18.30;99.90;;;;;;2071928;28;20087;-70
2021/08/26 00:34:12;;;;;;;11.30;10.18;;;18.30;99.90;;;;;;2071799;28;20114;-70
2021/08/26 00:35:13;;;;;;;9.55;8.65;;;18.30;99.90;;;;;;2072254;28;20022;-70
2021/08/26 00:36:13;;;;;;;10.63;9.55;;;18.20;99.90;;;;;;2071672;28;20362;-70
2021/08/26 00:37:14;;;;;;;10.65;9.65;;;18.20;99.90;;;;;;2072063;28;20022;-70
2021/08/26 00:38:14;;;;;;;11.63;10.52;;;18.20;99.90;;;;;;2071778;28;20375;-70
2021/08/26 00:39:15;;;;;;;10.02;9.02;;;18.20;99.90;;;;;;2071922;28;20042;-70
2021/08/26 00:40:15;;;;;;;13.30;9.38;;;18.20;99.90;;;;;;2071973;28;20028;-70
2021/08/26 00:41:17;;;;;;;12.57;10.43;;;18.20;99.90;;;;;;2071997;28;20358;-70
2021/08/26 00:42:18;;;;;;;11.95;10.18;;;18.20;99.90;;;;;;2071878;28;20022;-70
2021/08/26 00:43:18;;;;;;;11.30;10.13;;;18.20;99.90;;;;;;2071764;28;20034;-69
2021/08/26 00:44:19;;;;;;;11.40;10.30;;;18.20;99.90;;;;;;2078114;28;20444;-70
2021/08/26 00:45:19;;;;;;;10.85;9.85;;;18.20;99.90;;;;;;2077805;28;20025;-70
2021/08/26 00:46:20;;;;;;;12.18;9.98;;;18.30;99.90;;;;;;2071438;28;20033;-70
2021/08/26 00:47:27;;;;;;;11.68;9.68;;;18.20;99.90;;;;;;2072141;28;20022;-70
2021/08/26 00:48:28;;;;;;;9.63;8.68;;;18.20;99.90;;;;;;2071658;28;20038;-70
2021/08/26 00:49:30;;;;;;;9.48;8.57;;;18.20;99.90;;;;;;2071944;28;20034;-70
2021/08/26 00:50:31;;;;;;;12.68;9.77;;;18.20;99.90;;;;;;2071878;28;20022;-70
2021/08/26 00:51:33;;;;;;;11.30;10.10;;;18.20;99.90;;;;;;2071791;28;20105;-70
2021/08/26 00:52:37;;;;;;;11.98;10.32;;;18.30;99.90;;;;;;2071617;28;20079;-70
2021/08/26 00:53:39;;;;;;;9.93;8.93;;;18.30;99.90;;;;;;2071886;28;20065;-70
2021/08/26 00:54:40;;;;;;;9.50;8.50;;;18.20;99.90;;;;;;2071692;28;20049;-70
2021/08/26 00:55:40;;;;;;;11.60;10.10;;;18.20;99.90;;;;;;2071692;28;20061;-70
2021/08/26 00:56:41;;;;;;;9.90;8.85;;;18.30;99.90;;;;;;2071897;28;20033;-70
2021/08/26 00:57:42;;;;;;;9.13;8.20;;;18.30;99.90;;;;;;2071042;28;20370;-70
2021/08/26 00:58:46;;;;;;;10.05;8.88;;;18.30;99.90;;;;;;2069430;28;20362;-70
2021/08/26 00:59:46;;;;;;;12.88;8.63;;;18.30;99.90;;;;;;2064473;28;20053;-70
2021/08/26 01:00:55;;;;;;;9.90;8.13;;;18.20;99.90;;;;;;2072134;28;20032;-71
2021/08/26 01:02:00;;;;;;;9.73;8.73;;;18.20;99.90;;;;;;2070750;28;20285;-70
2021/08/26 01:03:07;;;;;;;8.90;7.90;;;18.20;99.90;;;;;;2063426;28;20046;-70
2021/08/26 01:04:24;;;;;;;8.73;7.82;;;18.20;99.90;;;;;;2071299;28;20018;-70
2021/08/26 01:05:46;;;;;;;8.48;7.68;;;18.20;99.90;;;;;;2071744;28;20092;-70
2021/08/26 01:07:00;;;;;;;8.10;7.30;;;18.10;99.90;;;;;;2069265;28;20450;-70
2021/08/26 01:08:13;;;;;;;9.00;7.93;;;18.10;99.90;;;;;;2072154;28;20031;-70
2021/08/26 01:09:18;;;;;;;7.10;6.45;;;18.10;99.90;;;;;;2071741;28;20022;-69
2021/08/26 01:10:20;;;;;;;12.63;6.95;;;18.10;99.90;;;;;;2071671;28;20014;-70
2021/08/26 01:11:23;;;;;;;5.68;5.15;;;18.10;99.90;;;;;;2074405;28;20029;-70
2021/08/26 01:12:24;;;;;;;4.68;4.00;;;18.00;99.90;;;;;;2079948;28;20099;-70
2021/08/26 01:13:37;;;;;;;4.18;3.70;;;18.00;99.90;;;;;;2072445;28;20424;-70
2021/08/26 01:14:39;;;;;;;4.25;3.85;;;18.00;99.90;;;;;;2071776;28;20018;-70
2021/08/26 01:15:59;;;;;;;3.67;3.45;;;17.90;99.90;;;;;;2070772;28;20033;-71
2021/08/26 01:17:00;;;;;;;3.10;2.80;;;17.90;99.90;;;;;;2071294;28;20809;-70
2021/08/26 01:18:00;;;;;;;2.97;2.78;;;17.90;99.90;;;;;;2071340;28;20474;-70
2021/08/26 01:19:01;;;;;;;3.38;2.38;;;17.80;99.90;;;;;;2064981;28;20032;-71
2021/08/26 01:20:04;;;;;;;2.67;2.30;;;17.80;99.90;;;;;;2071469;28;20093;-70
2021/08/26 01:21:13;;;;;;;2.60;2.40;;;17.80;99.90;;;;;;2071291;28;20022;-70
2021/08/26 01:22:18;;;;;;;5.55;2.22;;;17.80;99.90;;;;;;2071654;28;20026;-71
2021/08/26 01:23:19;;;;;;;2.78;2.58;;;17.80;99.90;;;;;;2071396;28;20036;-70
2021/08/26 01:24:22;;;;;;;4.43;2.45;;;17.80;99.90;;;;;;2071303;28;20033;-70
2021/08/26 01:25:26;;;;;;;2.17;2.03;;;17.80;99.90;;;;;;2074289;28;20033;-70
2021/08/26 01:26:36;;;;;;;2.40;2.05;;;17.80;99.90;;;;;;2071535;28;20141;-71
2021/08/26 01:27:43;;;;;;;2.03;1.83;;;17.80;99.90;;;;;;2071327;28;20438;-70
2021/08/26 01:28:49;;;;;;;2.75;1.80;;;17.80;99.90;;;;;;2071907;28;20111;-71
2021/08/26 01:29:50;;;;;;;2.03;1.70;;;17.70;99.90;;;;;;2071714;28;20040;-70
2021/08/26 01:30:51;;;;;;;3.25;1.85;;;17.60;99.90;;;;;;2071760;28;20544;-70
2021/08/26 01:31:51;;;;;;;2.30;1.58;;;17.70;99.90;;;;;;2071439;28;20463;-71
2021/08/26 01:32:59;;;;;;;3.97;1.95;;;17.60;99.90;;;;;;2070560;28;20113;-71
2021/08/26 01:34:02;;;;;;;4.32;2.20;;;17.60;99.90;;;;;;2071099;28;20072;-71
2021/08/26 01:35:04;;;;;;;4.70;2.15;;;17.60;99.90;;;;;;2071474;28;20446;-70
2021/08/26 01:36:05;;;;;;;3.50;2.08;;;17.60;99.90;;;;;;2071027;28;20146;-71
2021/08/26 01:37:06;;;;;;;2.92;1.90;;;17.60;99.90;;;;;;2071664;28;20045;-70
2021/08/26 01:38:07;;;;;;;2.78;2.22;;;17.60;99.90;;;;;;2070570;28;20061;-71
2021/08/26 01:39:12;;;;;;;5.88;1.90;;;17.60;99.90;;;;;;2074020;28;20042;-70
2021/08/26 01:40:13;;;;;;;6.35;2.67;;;17.60;99.90;;;;;;2075335;28;20053;-71
2021/08/26 01:41:14;;;;;;;3.28;2.08;;;17.60;99.90;;;;;;2071818;28;20026;-71
2021/08/26 01:42:16;;;;;;;4.53;2.30;;;17.60;99.90;;;;;;2071538;28;20018;-71
2021/08/26 01:43:21;;;;;;;3.72;1.95;;;17.60;99.90;;;;;;2071250;28;20022;-71
2021/08/26 01:44:26;;;;;;;5.95;2.00;;;17.60;99.90;;;;;;2071519;28;20044;-71
2021/08/26 01:45:26;;;;;;;5.13;1.90;;;17.60;99.90;;;;;;2071606;28;20026;-71
2021/08/26 01:46:27;;;;;;;3.00;2.05;;;17.60;99.90;;;;;;2071616;28;20053;-71
2021/08/26 01:47:27;;;;;;;5.82;2.47;;;17.60;99.90;;;;;;2071408;28;20550;-71
2021/08/26 01:48:28;;;;;;;2.95;2.33;;;17.60;99.90;;;;;;2070607;28;20054;-71
2021/08/26 01:49:29;;;;;;;6.63;2.40;;;17.60;99.90;;;;;;2071318;28;20033;-71
2021/08/26 01:50:29;;;;;;;5.25;2.30;;;17.60;99.90;;;;;;2071642;28;20458;-71
2021/08/26 01:51:30;;;;;;;4.63;2.10;;;17.60;99.90;;;;;;2071298;28;20033;-71
2021/08/26 01:52:31;;;;;;;4.32;2.50;;;17.60;99.90;;;;;;2071264;28;20048;-72
2021/08/26 01:53:31;;;;;;;4.57;2.05;;;17.60;99.90;;;;;;2074627;28;20022;-71
2021/08/26 01:54:34;;;;;;;5.60;2.67;;;17.60;99.90;;;;;;2070786;28;20561;-71
2021/08/26 01:55:34;;;;;;;4.60;2.38;;;17.70;99.90;;;;;;2070841;28;20462;-71
2021/08/26 01:56:36;;;;;;;4.90;2.65;;;17.70;99.90;;;;;;2068279;28;20026;-71
2021/08/26 01:57:37;;;;;;;4.35;2.60;;;17.70;99.90;;;;;;2071579;28;20048;-71
2021/08/26 01:58:37;;;;;;;4.03;2.47;;;17.70;99.90;;;;;;2071226;28;20030;-71
2021/08/26 01:59:38;;;;;;;3.15;2.17;;;17.70;99.90;;;;;;2071473;28;20442;-71
2021/08/26 02:00:39;;;;;;;3.53;2.42;;;17.70;99.90;;;;;;2071310;28;20077;-71
2021/08/26 02:01:39;;;;;;;3.60;2.38;;;17.70;99.90;;;;;;2070775;28;20026;-71
2021/08/26 02:02:40;;;;;;;6.97;2.17;;;17.70;99.90;;;;;;2070433;28;20492;-71
2021/08/26 02:03:41;;;;;;;4.78;2.65;;;17.70;99.90;;;;;;2071455;28;20034;-71
2021/08/26 02:04:42;;;;;;;6.10;2.50;;;17.80;99.90;;;;;;2071075;28;20026;-71
2021/08/26 02:05:42;;;;;;;3.78;2.42;;;17.80;99.90;;;;;;2070742;28;20022;-71
2021/08/26 02:06:43;;;;;;;3.95;2.70;;;17.80;99.90;;;;;;2073744;28;20051;-70
2021/08/26 02:07:51;;;;;;;4.82;2.33;;;17.70;99.90;;;;;;2079255;28;20026;-71
2021/08/26 02:08:52;;;;;;;4.10;2.50;;;17.70;99.90;;;;;;2071560;28;20022;-71
2021/08/26 02:09:52;;;;;;;3.25;2.30;;;17.70;99.90;;;;;;2071498;28;20030;-70
2021/08/26 02:10:53;;;;;;;4.25;2.70;;;17.70;99.90;;;;;;2071227;28;20038;-70
2021/08/26 02:11:53;;;;;;;4.05;2.60;;;17.70;99.90;;;;;;2071538;28;20076;-71
2021/08/26 02:12:54;;;;;;;6.53;2.55;;;17.70;99.90;;;;;;2070296;28;20076;-70
2021/08/26 02:13:54;;;;;;;6.63;2.80;;;17.70;99.90;;;;;;2070948;28;20631;-71
2021/08/26 02:14:57;;;;;;;4.97;2.47;;;17.70;99.90;;;;;;2071253;28;20472;-71
2021/08/26 02:15:58;;;;;;;5.82;2.60;;;17.70;99.90;;;;;;2076761;28;20397;-71
2021/08/26 02:16:59;;;;;;;3.85;2.15;;;17.70;99.90;;;;;;2071409;28;20034;-71
2021/08/26 02:17:59;;;;;;;5.38;2.85;;;17.70;99.90;;;;;;2070386;28;20026;-71
2021/08/26 02:19:00;;;;;;;3.55;2.63;;;17.70;99.90;;;;;;2070891;28;20502;-71
2021/08/26 02:20:01;;;;;;;5.47;2.80;;;17.70;99.90;;;;;;2071083;28;20347;-71
2021/08/26 02:21:01;;;;;;;5.32;3.15;;;17.70;99.90;;;;;;2071504;28;20022;-71
2021/08/26 02:22:02;;;;;;;5.18;2.47;;;17.70;99.90;;;;;;2071315;28;20018;-70
2021/08/26 02:23:03;;;;;;;5.90;2.88;;;17.70;99.90;;;;;;2070825;28;20014;-70
2021/08/26 02:24:05;;;;;;;5.68;2.58;;;17.70;99.90;;;;;;2070505;28;20072;-71
2021/08/26 02:25:07;;;;;;;6.43;3.10;;;17.70;99.90;;;;;;2070658;28;20027;-70
2021/08/26 02:26:08;;;;;;;5.30;3.08;;;17.70;99.90;;;;;;2070471;28;20390;-71
2021/08/26 02:27:08;;;;;;;4.60;2.88;;;17.70;99.90;;;;;;2071455;28;20029;-70
2021/08/26 02:28:09;;;;;;;4.82;2.55;;;17.70;99.90;;;;;;2070970;28;20056;-70
2021/08/26 02:29:09;;;;;;;7.93;3.00;;;17.70;99.90;;;;;;2073329;28;20018;-71
2021/08/26 02:30:10;;;;;;;6.25;3.60;;;17.70;99.90;;;;;;2079356;28;20025;-70
2021/08/26 02:31:11;;;;;;;7.00;3.05;;;17.70;99.90;;;;;;2073608;28;20069;-71
2021/08/26 02:32:12;;;;;;;7.13;3.42;;;17.70;99.90;;;;;;2071182;28;20100;-70
2021/08/26 02:33:12;;;;;;;3.25;2.40;;;17.70;99.90;;;;;;2071186;28;20389;-70
2021/08/26 02:34:13;;;;;;;5.18;3.00;;;17.70;99.90;;;;;;2071418;28;20029;-70
2021/08/26 02:35:13;;;;;;;6.30;2.88;;;17.70;99.90;;;;;;2071564;28;20041;-70
2021/08/26 02:36:14;;;;;;;7.07;3.17;;;17.70;99.90;;;;;;2070051;28;20022;-71
2021/08/26 02:37:15;;;;;;;7.60;3.20;;;17.70;99.90;;;;;;2070700;28;20398;-70
2021/08/26 02:38:15;;;;;;;6.53;3.03;;;17.70;99.90;;;;;;2071398;28;20096;-70
2021/08/26 02:39:16;;;;;;;4.88;2.70;;;17.70;99.90;;;;;;2071102;28;20025;-70
2021/08/26 02:40:16;;;;;;;7.15;2.80;;;17.70;99.90;;;;;;2071180;28;20108;-70
2021/08/26 02:41:17;;;;;;;6.28;2.97;;;17.70;99.90;;;;;;2071321;28;20026;-70
2021/08/26 02:42:18;;;;;;;6.38;3.35;;;17.70;99.90;;;;;;2071291;28;20407;-70
2021/08/26 02:43:18;;;;;;;6.60;2.55;;;17.70;99.90;;;;;;2075847;28;20422;-70
2021/08/26 02:44:19;;;;;;;5.45;3.05;;;17.70;99.90;;;;;;2071134;28;20112;-71
2021/08/26 02:45:19;;;;;;;5.53;3.28;;;17.70;99.90;;;;;;2065440;28;20064;-71
2021/08/26 02:46:20;;;;;;;4.80;2.95;;;17.60;99.90;;;;;;2071197;28;20026;-70
2021/08/26 02:47:21;;;;;;;5.50;2.75;;;17.60;99.90;;;;;;2071496;28;20371;-71
2021/08/26 02:48:21;;;;;;;6.32;2.88;;;17.60;99.90;;;;;;2071408;28;20080;-70
2021/08/26 02:49:22;;;;;;;5.22;2.97;;;17.60;99.90;;;;;;2071885;28;20053;-70
2021/08/26 02:50:22;;;;;;;4.50;2.85;;;17.60;99.90;;;;;;2071918;28;20062;-71
2021/08/26 02:51:23;;;;;;;5.15;3.20;;;17.60;99.90;;;;;;2074835;28;20026;-70
2021/08/26 02:52:24;;;;;;;5.97;3.28;;;17.60;99.90;;;;;;2074134;28;20104;-70
2021/08/26 02:53:24;;;;;;;7.28;2.88;;;17.60;99.90;;;;;;2072574;28;20096;-70
2021/08/26 02:54:25;;;;;;;6.50;3.60;;;17.60;99.90;;;;;;2072983;28;20453;-70
2021/08/26 02:55:25;;;;;;;10.00;3.28;;;17.60;99.90;;;;;;2072717;28;20042;-71
2021/08/26 02:56:26;;;;;;;7.75;3.25;;;17.60;99.90;;;;;;2072674;28;20034;-71
2021/08/26 02:57:26;;;;;;;6.60;3.13;;;17.50;99.90;;;;;;2080223;28;20041;-70
2021/08/26 02:58:27;;;;;;;12.10;3.00;;;17.50;99.90;;;;;;2076898;28;20029;-70
2021/08/26 02:59:28;;;;;;;8.13;3.80;;;17.50;99.90;;;;;;2076452;28;20033;-70
2021/08/26 03:00:28;;;;;;;6.78;3.75;;;17.50;99.90;;;;;;2072556;28;20026;-70
2021/08/26 03:01:29;;;;;;;6.90;3.08;;;17.40;99.90;;;;;;2072310;28;20057;-70
2021/08/26 03:02:29;;;;;;;6.35;3.55;;;17.40;99.90;;;;;;2072834;28;20503;-71
2021/08/26 03:03:30;;;;;;;10.20;3.65;;;17.40;99.90;;;;;;2072283;28;20026;-70
2021/08/26 03:04:31;;;;;;;6.70;3.00;;;17.50;99.90;;;;;;2072114;28;20053;-70
2021/08/26 03:05:31;;;;;;;10.65;3.70;;;17.50;99.90;;;;;;2072221;28;20037;-70
2021/08/26 03:06:32;;;;;;;6.15;3.75;;;17.50;99.90;;;;;;2080126;28;20104;-70
2021/08/26 03:07:32;;;;;;;9.80;3.85;;;17.40;99.90;;;;;;2080177;28;20072;-71
2021/08/26 03:08:33;;;;;;;9.10;3.78;;;17.40;99.90;;;;;;2071861;28;20036;-70
2021/08/26 03:09:33;;;;;;;8.68;3.75;;;17.40;99.90;;;;;;2072402;28;20643;-70
2021/08/26 03:10:34;;;;;;;6.40;3.65;;;17.40;99.90;;;;;;2072674;28;20030;-70
2021/08/26 03:11:35;;;;;;;6.30;2.83;;;17.40;99.90;;;;;;2072348;28;20529;-70
2021/08/26 03:12:35;;;;;;;9.15;3.28;;;17.40;99.90;;;;;;2072309;28;20034;-70
2021/08/26 03:13:37;;;;;;;6.22;3.50;;;17.40;99.90;;;;;;2076166;28;20064;-70
2021/08/26 03:14:37;;;;;;;6.15;3.05;;;17.40;99.90;;;;;;2076930;28;20492;-70
2021/08/26 03:15:38;;;;;;;9.63;3.65;;;17.40;99.90;;;;;;2072510;28;20029;-71
2021/08/26 03:16:38;;;;;;;8.27;3.42;;;17.40;99.90;;;;;;2072537;28;20105;-70
2021/08/26 03:17:39;;;;;;;6.32;2.92;;;17.40;99.90;;;;;;2072643;28;20025;-70
2021/08/26 03:18:40;;;;;;;6.57;3.40;;;17.40;99.90;;;;;;2072109;28;20041;-70
2021/08/26 03:19:40;;;;;;;6.13;3.47;;;17.30;99.90;;;;;;2070668;28;20022;-70
2021/08/26 03:20:41;;;;;;;6.25;3.92;;;17.30;99.90;;;;;;2072629;28;20022;-71
2021/08/26 03:21:41;;;;;;;8.40;4.25;;;17.30;99.90;;;;;;2073409;28;20034;-70
2021/08/26 03:22:42;;;;;;;10.32;3.63;;;17.30;99.90;;;;;;2072308;28;20029;-70
2021/08/26 03:23:42;;;;;;;14.45;4.03;;;17.30;99.90;;;;;;2072624;28;20026;-70
2021/08/26 03:24:43;;;;;;;8.38;3.42;;;17.30;99.90;;;;;;2072505;28;20104;-70
2021/08/26 03:25:44;;;;;;;6.70;4.07;;;17.30;99.90;;;;;;2072083;28;20037;-70
2021/08/26 03:26:45;;;;;;;6.35;2.80;;;17.20;99.90;;;;;;2071933;28;20385;-70
2021/08/26 03:27:45;;;;;;;9.23;3.88;;;17.20;99.90;;;;;;2071094;28;20035;-70
2021/08/26 03:28:46;;;;;;;6.93;3.47;;;17.20;99.90;;;;;;2072575;28;20377;-70
2021/08/26 03:29:47;;;;;;;8.32;3.10;;;17.20;99.90;;;;;;2072330;28;20036;-70
2021/08/26 03:30:47;;;;;;;4.88;2.95;;;17.20;99.90;;;;;;2072325;28;20042;-70
2021/08/26 03:31:48;;;;;;;9.38;3.70;;;17.20;99.90;;;;;;2072120;28;20037;-70
2021/08/26 03:32:48;;;;;;;6.75;3.50;;;17.20;99.90;;;;;;2071922;28;20115;-70
2021/08/26 03:33:49;;;;;;;10.15;3.30;;;17.20;99.90;;;;;;2072434;28;20398;-70
2021/08/26 03:34:49;;;;;;;8.70;3.47;;;17.20;99.90;;;;;;2072509;28;20025;-70
2021/08/26 03:35:50;;;;;;;8.75;3.95;;;17.20;99.90;;;;;;2072316;28;20092;-70
2021/08/26 03:36:51;;;;;;;8.02;3.78;;;17.20;99.90;;;;;;2072312;28;20025;-70
2021/08/26 03:37:51;;;;;;;7.10;3.30;;;17.20;99.90;;;;;;2072437;28;20084;-70
2021/08/26 03:38:52;;;;;;;10.55;3.50;;;17.20;99.90;;;;;;2072387;28;20976;-70
2021/08/26 03:39:53;;;;;;;6.88;3.28;;;17.20;99.90;;;;;;2072530;28;20034;-70
2021/08/26 03:40:54;;;;;;;8.93;3.08;;;17.20;99.90;;;;;;2073615;28;20037;-70
2021/08/26 03:41:54;;;;;;;8.55;3.72;;;17.20;99.90;;;;;;2072207;28;20527;-70
2021/08/26 03:42:55;;;;;;;7.72;3.42;;;17.20;99.90;;;;;;2072093;28;20030;-70
2021/08/26 03:43:55;;;;;;;9.27;4.15;;;17.20;99.90;;;;;;2072348;28;20100;-70
2021/08/26 03:44:56;;;;;;;6.72;3.33;;;17.20;99.90;;;;;;2071626;28;20462;-70
2021/08/26 03:45:57;;;;;;;10.73;4.15;;;17.20;99.90;;;;;;2071989;28;20021;-70
2021/08/26 03:46:57;;;;;;;9.52;4.10;;;17.20;99.90;;;;;;2072419;28;20033;-70
2021/08/26 03:47:58;;;;;;;9.20;3.80;;;17.20;99.90;;;;;;2072203;28;20696;-70
2021/08/26 03:48:58;;;;;;;8.52;3.85;;;17.10;99.90;;;;;;2072161;28;20068;-70
2021/08/26 03:49:59;;;;;;;8.90;3.35;;;17.20;99.90;;;;;;2072551;28;20045;-70
2021/08/26 03:51:00;;;;;;;9.68;3.58;;;17.10;99.90;;;;;;2072276;28;20898;-70
2021/08/26 03:52:02;;;;;;;8.07;3.17;;;17.10;99.90;;;;;;2072183;28;20057;-70
2021/08/26 03:53:03;;;;;;;6.95;3.33;;;17.10;99.90;;;;;;2072245;28;20101;-70
2021/08/26 03:54:03;;;;;;;11.13;3.38;;;17.10;99.90;;;;;;2072215;28;20776;-70
2021/08/26 03:55:04;;;;;;;6.90;3.28;;;17.10;99.90;;;;;;2075603;28;20013;-70
2021/08/26 03:56:06;;;;;;;10.05;4.03;;;17.10;99.90;;;;;;2072327;28;20524;-70
2021/08/26 03:57:07;;;;;;;8.80;3.95;;;17.10;99.90;;;;;;2072058;28;20065;-70
2021/08/26 03:58:07;;;;;;;11.60;3.97;;;17.10;99.90;;;;;;2072190;28;20105;-70
2021/08/26 03:59:08;;;;;;;6.25;3.30;;;17.10;99.90;;;;;;2072298;28;20022;-70
2021/08/26 04:00:09;;;;;;;7.32;3.65;;;17.10;99.90;;;;;;2072225;28;20387;-70
2021/08/26 04:01:10;;;;;;;7.10;3.35;;;17.10;99.90;;;;;;2071730;28;20476;-70
2021/08/26 04:02:10;;;;;;;10.50;3.72;;;17.10;99.90;;;;;;2071605;28;20410;-70
2021/08/26 04:03:11;;;;;;;7.80;3.70;;;17.10;99.90;;;;;;2071753;28;20033;-70
2021/08/26 04:04:11;;;;;;;8.27;3.75;;;17.10;99.90;;;;;;2072261;28;20026;-70
2021/08/26 04:05:12;;;;;;;7.05;3.65;;;17.10;99.90;;;;;;2072195;28;20021;-70
2021/08/26 04:06:12;;;;;;;8.60;3.75;;;17.10;99.90;;;;;;2071616;28;20149;-70
2021/08/26 04:07:15;;;;;;;11.23;4.05;;;17.10;99.90;;;;;;2072534;28;20053;-70
2021/08/26 04:08:15;;;;;;;9.35;3.42;;;17.10;99.90;;;;;;2071761;28;20028;-70
2021/08/26 04:09:16;;;;;;;9.52;3.88;;;17.20;99.90;;;;;;2072365;28;20149;-70
2021/08/26 04:10:16;;;;;;;11.10;3.72;;;17.10;99.90;;;;;;2072019;28;20021;-70
2021/08/26 04:11:17;;;;;;;9.55;3.15;;;17.20;99.90;;;;;;2071836;28;20064;-70
2021/08/26 04:12:18;;;;;;;8.32;3.63;;;17.20;99.90;;;;;;2071610;28;20026;-70
2021/08/26 04:13:20;;;;;;;11.23;3.97;;;17.20;99.90;;;;;;2071449;28;20026;-70
2021/08/26 04:14:20;;;;;;;12.48;3.35;;;17.20;99.90;;;;;;2071977;28;20022;-70
2021/08/26 04:15:21;;;;;;;8.27;3.33;;;17.20;99.90;;;;;;2072295;28;20029;-70
2021/08/26 04:16:22;;;;;;;11.55;3.70;;;17.20;99.90;;;;;;2072087;28;20053;-70
2021/08/26 04:17:22;;;;;;;7.80;3.90;;;17.20;99.90;;;;;;2072413;28;20021;-70
2021/08/26 04:18:23;;;;;;;9.43;4.00;;;17.20;99.90;;;;;;2071796;28;20049;-70
2021/08/26 04:19:24;;;;;;;8.90;3.90;;;17.20;99.90;;;;;;2072404;28;20041;-70
2021/08/26 04:20:24;;;;;;;9.25;3.60;;;17.20;99.90;;;;;;2072152;28;20691;-70
2021/08/26 04:21:25;;;;;;;10.18;3.88;;;17.10;99.90;;;;;;2071907;28;20018;-70
2021/08/26 04:22:25;;;;;;;10.27;3.70;;;17.10;99.90;;;;;;2075304;28;20108;-69
2021/08/26 04:23:26;;;;;;;9.98;3.78;;;17.10;99.90;;;;;;2071838;28;20038;-70
2021/08/26 04:24:26;;;;;;;9.65;3.75;;;17.10;99.90;;;;;;2071740;28;20084;-70
2021/08/26 04:25:27;;;;;;;9.02;3.58;;;17.10;99.90;;;;;;2072416;28;20549;-70
2021/08/26 04:26:28;;;;;;;9.85;3.75;;;17.10;99.90;;;;;;2071798;28;20057;-71
2021/08/26 04:27:28;;;;;;;9.65;4.15;;;17.10;99.90;;;;;;2072138;28;20029;-70
2021/08/26 04:28:29;;;;;;;7.45;3.40;;;17.10;99.90;;;;;;2071941;28;20111;-70
2021/08/26 04:29:29;;;;;;;15.07;4.55;;;17.10;99.90;;;;;;2071991;28;20382;-69
2021/08/26 04:30:30;;;;;;;6.45;3.40;;;17.10;99.90;;;;;;2072199;28;20037;-70
2021/08/26 04:31:30;;;;;;;8.70;3.10;;;17.10;99.90;;;;;;2072031;28;20117;-70
2021/08/26 04:32:31;;;;;;;7.95;2.92;;;17.10;99.90;;;;;;2071484;28;20385;-70
2021/08/26 04:33:32;;;;;;;11.27;4.20;;;17.10;99.90;;;;;;2071842;28;20045;-70
2021/08/26 04:34:32;;;;;;;10.95;3.90;;;17.10;99.90;;;;;;2071984;28;20050;-70
2021/08/26 04:35:33;;;;;;;13.20;3.83;;;17.10;99.90;;;;;;2071991;28;20044;-70
2021/08/26 04:36:33;;;;;;;11.77;3.80;;;17.10;99.90;;;;;;2072272;28;20415;-70
2021/08/26 04:37:34;;;;;;;8.82;3.90;;;17.10;99.90;;;;;;2071873;28;20386;-69
2021/08/26 04:38:34;;;;;;;11.05;4.10;;;17.10;99.90;;;;;;2072180;28;20402;-70
2021/08/26 04:39:35;;;;;;;11.43;4.20;;;17.10;99.90;;;;;;2071782;28;20033;-70
2021/08/26 04:40:36;;;;;;;10.68;3.65;;;17.10;99.90;;;;;;2071651;28;20113;-70
2021/08/26 04:41:38;;;;;;;10.68;3.95;;;17.10;99.90;;;;;;2071811;28;20068;-70
2021/08/26 04:42:38;;;;;;;9.90;3.42;;;17.10;99.90;;;;;;2071589;28;20065;-70
2021/08/26 04:43:39;;;;;;;9.85;3.63;;;17.10;99.90;;;;;;2071914;28;20088;-70
2021/08/26 04:44:40;;;;;;;14.82;4.38;;;17.10;99.90;;;;;;2072104;28;20053;-69
2021/08/26 04:45:40;;;;;;;11.63;4.20;;;17.00;99.90;;;;;;2071944;28;20034;-70
2021/08/26 04:46:41;;;;;;;12.63;4.38;;;17.00;99.90;;;;;;2071952;28;20030;-70
2021/08/26 04:47:42;;;;;;;12.98;4.60;;;17.00;99.90;;;;;;2071862;28;20482;-70
2021/08/26 04:48:42;;;;;;;10.90;3.72;;;17.00;99.90;;;;;;2071994;28;20033;-70
2021/08/26 04:49:43;;;;;;;10.13;4.03;;;17.00;99.90;;;;;;2074561;28;20026;-70
2021/08/26 04:50:43;;;;;;;12.43;4.35;;;17.00;99.90;;;;;;2072994;28;20443;-70
2021/08/26 04:51:44;;;;;;;18.90;4.22;;;17.00;99.90;;;;;;2071528;28;20030;-70
2021/08/26 04:52:44;;;;;;;14.13;4.57;;;17.00;99.90;;;;;;2071327;28;20032;-70
2021/08/26 04:53:45;;;;;;;11.68;4.22;;;16.90;99.90;;;;;;2071733;28;20026;-70
2021/08/26 04:54:45;;;;;;;14.38;4.10;;;16.90;99.90;;;;;;2071906;28;20387;-70
2021/08/26 04:55:46;;;;;;;11.90;3.53;;;16.90;99.90;;;;;;2071936;28;20054;-69
2021/08/26 04:56:46;;;;;;;10.27;3.42;;;16.90;99.90;;;;;;2071773;28;20033;-69
2021/08/26 04:57:47;;;;;;;9.93;3.95;;;16.90;99.90;;;;;;2071110;28;20022;-70
2021/08/26 04:58:47;;;;;;;14.43;4.60;;;17.00;99.90;;;;;;2071072;28;20030;-69
2021/08/26 04:59:48;;;;;;;13.43;3.58;;;17.00;99.90;;;;;;2065379;28;20095;-70
2021/08/26 05:00:49;;;;;;;11.73;4.07;;;17.00;99.90;;;;;;2071795;28;20044;-70
2021/08/26 05:01:49;;;;;;;12.80;4.22;;;17.00;99.90;;;;;;2071511;28;20021;-70
2021/08/26 05:02:50;;;;;;;11.27;3.88;;;17.00;99.90;;;;;;2071689;28;20050;-70
2021/08/26 05:03:50;;;;;;;15.57;4.75;;;17.00;99.90;;;;;;2078090;28;20558;-69
2021/08/26 05:04:51;;;;;;;11.10;3.70;;;17.00;99.90;;;;;;2076115;28;20040;-70
2021/08/26 05:05:51;;;;;;;12.30;4.18;;;16.90;99.90;;;;;;2071474;28;20041;-70
2021/08/26 05:06:52;;;;;;;15.02;4.30;;;17.00;99.90;;;;;;2070950;28;20522;-70
2021/08/26 05:07:53;;;;;;;9.20;3.47;;;17.00;99.90;;;;;;2071356;28;20037;-70
2021/08/26 05:08:53;;;;;;;14.30;3.85;;;17.00;99.90;;;;;;2063884;28;20049;-70
2021/08/26 05:09:54;;;;;;;11.48;4.60;;;17.00;99.90;;;;;;2068563;28;20041;-70
2021/08/26 05:10:54;;;;;;;8.15;3.95;;;17.00;99.90;;;;;;2071964;28;20831;-69
2021/08/26 05:11:58;;;;;;;10.27;3.80;;;17.00;99.90;;;;;;2071361;28;20033;-70
2021/08/26 05:12:58;;;;;;;13.25;4.53;;;17.00;99.90;;;;;;2070324;28;20026;-70
2021/08/26 05:13:59;;;;;;;11.35;3.70;;;17.00;99.90;;;;;;2071802;28;20066;-69
2021/08/26 05:15:00;;;;;;;9.82;3.70;;;17.00;99.90;;;;;;2071699;28;20037;-70
2021/08/26 05:16:01;;;;;;;10.70;3.97;;;17.00;99.90;;;;;;2071954;28;20029;-70
2021/08/26 05:17:01;;;;;;;10.18;3.83;;;17.00;99.90;;;;;;2073057;28;20056;-70
2021/08/26 05:18:02;;;;;;;13.70;4.28;;;17.00;99.90;;;;;;2074473;28;20029;-70
2021/08/26 05:19:03;;;;;;;20.05;4.90;;;17.00;99.90;;;;;;2071914;28;20018;-69
2021/08/26 05:20:04;;;;;;;13.82;3.80;;;17.00;99.90;;;;;;2071010;28;20037;-70
2021/08/26 05:21:05;;;;;;;12.75;3.97;;;17.00;99.90;;;;;;2070644;28;20421;-70
2021/08/26 05:22:05;;;;;;;13.93;4.20;;;17.00;99.90;;;;;;2071470;28;20084;-69
2021/08/26 05:23:06;;;;;;;8.75;3.78;;;17.00;99.90;;;;;;2070901;28;20049;-69